Time;durP1;ratioP1;P1;durP2;ratioP2;P2;SDS_P1;SDS_P2;PMS_P1;PMS_P2;Temp;Humidity;BMP_temperature;BMP_pressure;BME280_temperature;BME280_humidity;BME280_pressure;Samples;Min_cycle;Max_cycle;Signal;HPM_P1;HPM_P2
2023/12/05 00:00:42;;;;;;;58.58;27.40;;;;;;;7.42;67.28;101665.13;5048457;28;20481;-77
2023/12/05 00:03:08;;;;;;;45.63;26.08;;;;;;;7.37;67.60;101657.31;5048329;28;20025;-77
2023/12/05 00:05:33;;;;;;;46.60;25.25;;;;;;;7.22;67.21;101674.16;5048598;28;20053;-77
2023/12/05 00:07:58;;;;;;;51.80;26.02;;;;;;;7.22;68.39;101663.47;5060281;28;20039;-78
2023/12/05 00:10:24;;;;;;;61.65;26.73;;;;;;;7.31;68.50;101671.03;5062511;28;20046;-77
2023/12/05 00:12:49;;;;;;;47.47;25.55;;;;;;;7.21;68.91;101661.75;5049362;28;20029;-76
2023/12/05 00:15:15;;;;;;;48.28;23.33;;;;;;;7.32;68.22;101674.56;5048146;28;20540;-77
2023/12/05 00:17:40;;;;;;;52.35;25.90;;;;;;;7.19;68.35;101663.63;5048097;28;20028;-77
2023/12/05 00:20:07;;;;;;;48.00;23.55;;;;;;;7.35;67.78;101677.97;5048122;28;20409;-77
2023/12/05 00:22:32;;;;;;;43.53;23.60;;;;;;;7.36;67.31;101666.31;5047731;28;20111;-77
2023/12/05 00:24:58;;;;;;;41.80;23.73;;;;;;;7.41;67.74;101669.59;5048240;28;20116;-77
2023/12/05 00:27:24;;;;;;;45.15;23.35;;;;;;;7.34;67.25;101643.25;5048148;28;20086;-78
2023/12/05 00:29:49;;;;;;;42.47;24.33;;;;;;;7.39;67.07;101633.16;5047996;28;20029;-76
2023/12/05 00:32:18;;;;;;;41.25;22.13;;;;;;;7.59;67.51;101663.28;5048126;28;20486;-77
2023/12/05 00:34:46;;;;;;;42.65;24.75;;;;;;;7.63;67.08;101659.53;5047886;28;20083;-77
2023/12/05 00:37:12;;;;;;;42.72;24.83;;;;;;;7.65;67.18;101676.34;5047626;28;20056;-76
2023/12/05 00:39:38;;;;;;;43.13;25.80;;;;;;;7.52;67.19;101672.59;5047545;28;20469;-76
2023/12/05 00:42:03;;;;;;;52.70;25.67;;;;;;;7.53;67.44;101668.97;5047084;28;20029;-77
2023/12/05 00:44:29;;;;;;;42.95;24.98;;;;;;;7.46;67.70;101653.31;5047864;28;20112;-77
2023/12/05 00:46:54;;;;;;;50.63;24.67;;;;;;;7.54;68.11;101654.66;5048128;28;20452;-77
2023/12/05 00:49:20;;;;;;;41.33;23.17;;;;;;;7.63;67.98;101648.81;5047698;28;20036;-77
2023/12/05 00:51:45;;;;;;;49.40;24.38;;;;;;;7.70;68.05;101648.50;5045743;28;20044;-78
2023/12/05 00:54:11;;;;;;;40.83;22.27;;;;;;;7.76;68.40;101637.44;5051180;28;20064;-76
2023/12/05 00:56:36;;;;;;;34.83;22.10;;;;;;;7.85;68.67;101626.25;5051944;28;20037;-78
2023/12/05 00:59:02;;;;;;;41.78;19.77;;;;;;;7.81;69.41;101603.25;5059151;28;20025;-78
2023/12/05 01:01:28;;;;;;;30.63;18.30;;;;;;;7.96;70.36;101613.97;5061008;28;20062;-78
2023/12/05 01:03:56;;;;;;;25.88;15.25;;;;;;;7.93;70.97;101586.50;5052166;28;20485;-77
2023/12/05 01:06:22;;;;;;;29.30;14.55;;;;;;;8.00;72.23;101612.88;5051426;28;20043;-78
2023/12/05 01:08:48;;;;;;;27.73;14.57;;;;;;;7.94;73.34;101610.53;5049117;28;20097;-77
2023/12/05 01:11:13;;;;;;;22.35;14.95;;;;;;;7.90;73.95;101608.09;5050605;28;20029;-77
2023/12/05 01:13:39;;;;;;;22.38;14.00;;;;;;;7.88;74.74;101623.41;5051661;28;20028;-77
2023/12/05 01:16:05;;;;;;;21.17;12.00;;;;;;;7.97;75.57;101614.84;5051319;28;20143;-77
2023/12/05 01:18:30;;;;;;;18.40;10.70;;;;;;;8.04;75.71;101621.63;5051204;28;20386;-77
2023/12/05 01:20:56;;;;;;;17.70;10.85;;;;;;;8.05;76.12;101602.75;5050851;28;20025;-76
2023/12/05 01:23:21;;;;;;;16.10;10.10;;;;;;;8.11;76.60;101598.88;5051349;28;20085;-78
2023/12/05 01:25:47;;;;;;;19.48;12.70;;;;;;;8.11;76.98;101614.94;5051150;28;20083;-78
2023/12/05 01:28:12;;;;;;;19.13;12.20;;;;;;;8.09;77.39;101598.09;5051251;28;20755;-77
2023/12/05 01:30:38;;;;;;;19.52;12.43;;;;;;;8.10;77.07;101589.13;5050951;28;20025;-77
2023/12/05 01:33:04;;;;;;;26.05;16.20;;;;;;;8.09;77.52;101587.38;5050938;28;20025;-78
2023/12/05 01:35:29;;;;;;;48.92;26.77;;;;;;;8.20;76.29;101609.94;5050997;28;20584;-77
2023/12/05 01:37:54;;;;;;;40.97;24.50;;;;;;;8.11;74.00;101601.56;5050881;28;20588;-77
2023/12/05 01:40:20;;;;;;;50.85;28.48;;;;;;;8.06;71.78;101609.00;5051065;28;20025;-77
2023/12/05 01:42:45;;;;;;;44.47;28.13;;;;;;;7.87;70.83;101582.34;5051129;28;20028;-77
2023/12/05 01:45:12;;;;;;;51.95;28.35;;;;;;;7.95;70.73;101590.81;5065545;28;20045;-77
2023/12/05 01:47:39;;;;;;;45.60;28.08;;;;;;;7.84;70.63;101568.25;5051052;28;20025;-79
2023/12/05 01:50:10;;;;;;;45.60;28.40;;;;;;;7.59;70.28;101524.09;5070058;28;20029;-77
2023/12/05 01:52:41;;;;;;;45.38;27.95;;;;;;;7.97;70.74;101570.19;5070869;28;20029;-77
2023/12/05 01:55:09;;;;;;;43.67;27.37;;;;;;;7.98;70.99;101579.09;5050874;28;20025;-79
2023/12/05 01:57:36;;;;;;;70.82;36.55;;;;;;;7.99;72.50;101568.28;5050485;28;20040;-76
2023/12/05 02:00:04;;;;;;;83.05;39.42;;;;;;;8.00;73.41;101547.72;5050465;28;20108;-77
2023/12/05 02:02:30;;;;;;;71.32;35.13;;;;;;;8.13;74.41;101554.13;5050199;28;20114;-77
2023/12/05 02:04:56;;;;;;;56.38;28.15;;;;;;;8.29;74.63;101568.38;5050041;28;20033;-76
2023/12/05 02:07:23;;;;;;;92.18;41.55;;;;;;;8.42;75.06;101565.88;5050099;28;20052;-77
2023/12/05 02:09:48;;;;;;;66.72;32.85;;;;;;;8.53;75.79;101569.66;5050618;28;20027;-78
2023/12/05 02:12:14;;;;;;;51.47;25.02;;;;;;;8.66;75.55;101557.28;5049816;28;20033;-77
2023/12/05 02:14:40;;;;;;;38.17;20.42;;;;;;;8.82;76.25;101567.97;5050072;28;20693;-77
2023/12/05 02:17:19;;;;;;;31.15;17.05;;;;;;;8.90;75.79;101552.28;5049790;28;20043;-77
2023/12/05 02:19:57;;;;;;;27.77;15.88;;;;;;;8.85;75.93;101519.50;5050228;28;20111;-76
2023/12/05 02:22:32;;;;;;;26.40;15.13;;;;;;;9.17;76.00;101547.09;5049940;28;20037;-77
2023/12/05 02:25:09;;;;;;;27.70;15.93;;;;;;;9.24;75.80;101554.66;5050037;28;20060;-77
2023/12/05 02:27:38;;;;;;;22.17;13.80;;;;;;;9.34;75.97;101543.34;5049578;28;20025;-77
2023/12/05 02:30:04;;;;;;;19.05;12.35;;;;;;;9.46;75.60;101551.50;5050222;28;20024;-77
2023/12/05 02:32:29;;;;;;;17.27;11.23;;;;;;;9.46;75.12;101548.81;5050286;28;20021;-76
2023/12/05 02:34:55;;;;;;;15.10;10.35;;;;;;;9.33;74.84;101514.78;5050687;28;20037;-77
2023/12/05 02:37:45;;;;;;;27.90;16.60;;;;;;;9.53;74.51;101549.31;5050071;28;20553;-77
2023/12/05 02:40:26;;;;;;;36.72;18.30;;;;;;;9.39;73.18;101552.00;5053563;28;20029;-77
2023/12/05 02:42:55;;;;;;;34.60;20.65;;;;;;;9.35;72.97;101540.59;5059520;28;20025;-77
2023/12/05 02:45:24;;;;;;;32.40;18.98;;;;;;;9.26;72.87;101535.78;5054257;28;20112;-76
2023/12/05 02:47:51;;;;;;;25.63;15.70;;;;;;;9.36;72.97;101539.59;5049185;28;20033;-76
2023/12/05 02:50:18;;;;;;;36.47;17.13;;;;;;;9.40;73.55;101541.16;5049344;28;20029;-76
2023/12/05 02:52:44;;;;;;;27.60;16.08;;;;;;;9.47;73.73;101533.59;5049007;28;20020;-77
2023/12/05 02:55:09;;;;;;;20.65;14.15;;;;;;;9.54;74.37;101535.78;5049423;28;20041;-79
2023/12/05 02:57:35;;;;;;;17.73;12.43;;;;;;;9.60;74.42;101535.38;5049075;28;20094;-77
2023/12/05 03:00:00;;;;;;;17.67;11.02;;;;;;;9.65;73.71;101546.72;5049277;28;20510;-77
2023/12/05 03:02:26;;;;;;;16.63;11.38;;;;;;;9.61;73.75;101542.50;5048946;28;20507;-77
2023/12/05 03:04:51;;;;;;;13.52;8.25;;;;;;;9.57;73.78;101543.63;5048787;28;20032;-77
2023/12/05 03:07:17;;;;;;;19.42;9.90;;;;;;;9.52;73.87;101543.06;5049206;28;20094;-78
2023/12/05 03:09:43;;;;;;;12.63;9.75;;;;;;;9.50;74.12;101531.56;5048799;28;20143;-78
2023/12/05 03:12:08;;;;;;;16.85;11.18;;;;;;;9.45;73.56;101509.50;5025917;28;20069;-78
2023/12/05 03:14:34;;;;;;;19.02;11.02;;;;;;;9.62;73.77;101533.50;5025884;28;20099;-79
2023/12/05 03:16:59;;;;;;;24.85;12.32;;;;;;;9.59;73.99;101533.69;4992640;28;20041;-76
2023/12/05 03:19:25;;;;;;;14.90;10.98;;;;;;;9.60;74.35;101530.00;5025920;28;20059;-78
2023/12/05 03:21:51;;;;;;;13.43;10.65;;;;;;;9.59;74.87;101538.19;5026438;28;20055;-78
2023/12/05 03:24:16;;;;;;;16.23;10.52;;;;;;;9.65;75.08;101522.56;5026129;28;20592;-78
2023/12/05 03:26:42;;;;;;;18.75;10.20;;;;;;;9.76;74.96;101525.41;5026477;28;20041;-78
2023/12/05 03:29:07;;;;;;;18.13;9.60;;;;;;;9.80;75.19;101526.94;5026353;28;20037;-78
2023/12/05 03:31:35;;;;;;;13.32;9.43;;;;;;;9.64;74.82;101496.66;5031078;28;20068;-78
2023/12/05 03:34:01;;;;;;;22.35;14.00;;;;;;;9.82;74.81;101516.09;5040388;28;20029;-78
2023/12/05 03:36:27;;;;;;;20.98;12.95;;;;;;;9.85;75.14;101516.75;5032230;28;20500;-78
2023/12/05 03:38:52;;;;;;;16.05;9.60;;;;;;;9.92;75.47;101524.44;5026034;28;20038;-77
2023/12/05 03:41:18;;;;;;;15.15;11.68;;;;;;;9.91;75.82;101511.97;5025890;28;20865;-78
2023/12/05 03:43:43;;;;;;;15.27;10.70;;;;;;;9.99;75.76;101520.38;5042348;28;20454;-77
2023/12/05 03:46:08;;;;;;;16.20;11.30;;;;;;;9.99;75.93;101520.38;5048421;28;20033;-78
2023/12/05 03:48:36;;;;;;;14.52;10.38;;;;;;;9.98;76.01;101511.47;5048156;28;20048;-77
2023/12/05 03:51:02;;;;;;;15.95;10.52;;;;;;;9.94;76.37;101512.59;5048232;28;20116;-78
2023/12/05 03:53:27;;;;;;;21.70;13.90;;;;;;;9.81;76.88;101512.53;5046851;28;20021;-78
2023/12/05 03:55:53;;;;;;;19.45;11.95;;;;;;;9.72;77.96;101499.69;5048231;28;20503;-81
2023/12/05 03:58:18;;;;;;;19.60;12.38;;;;;;;9.63;78.27;101481.47;5048061;28;20032;-79
2023/12/05 04:00:44;;;;;;;27.92;14.77;;;;;;;9.74;79.11;101496.91;5048080;28;20029;-78
2023/12/05 04:03:10;;;;;;;17.73;11.90;;;;;;;9.56;78.51;101490.91;5047699;28;20029;-80
2023/12/05 04:05:36;;;;;;;21.48;11.32;;;;;;;9.19;79.88;101511.13;5047095;28;20020;-80
2023/12/05 04:08:01;;;;;;;17.92;11.05;;;;;;;9.19;82.78;101480.75;5047359;28;20025;-79
2023/12/05 04:10:27;;;;;;;15.05;9.95;;;;;;;9.24;83.70;101484.00;5047600;28;20033;-79
2023/12/05 04:12:52;;;;;;;23.88;11.32;;;;;;;9.28;83.89;101488.22;5047771;28;20017;-79
2023/12/05 04:15:18;;;;;;;15.82;10.48;;;;;;;9.28;84.49;101486.41;5047724;28;20120;-79
2023/12/05 04:17:43;;;;;;;18.65;10.40;;;;;;;9.34;84.81;101493.22;5045362;28;20041;-80
2023/12/05 04:20:10;;;;;;;20.55;14.25;;;;;;;9.33;84.71;101496.84;5047802;28;20500;-78
2023/12/05 04:22:36;;;;;;;28.17;17.50;;;;;;;9.26;84.70;101492.84;5047777;28;20457;-78
2023/12/05 04:25:03;;;;;;;22.30;12.77;;;;;;;9.19;84.88;101486.09;5051161;28;20127;-78
2023/12/05 04:27:29;;;;;;;22.20;12.63;;;;;;;9.20;85.35;101494.06;5051298;28;20111;-77
2023/12/05 04:29:54;;;;;;;24.83;14.00;;;;;;;9.14;85.09;101490.91;5050638;28;20469;-76
2023/12/05 04:32:20;;;;;;;17.17;11.35;;;;;;;9.19;85.97;101492.34;5051835;28;20111;-78
2023/12/05 04:34:47;;;;;;;22.05;12.82;;;;;;;9.12;85.81;101485.63;5051478;28;20037;-79
2023/12/05 04:37:12;;;;;;;21.02;11.52;;;;;;;9.13;85.81;101486.50;5049996;28;20669;-77
2023/12/05 04:39:38;;;;;;;19.75;10.82;;;;;;;9.11;85.74;101485.72;5051213;28;20033;-76
2023/12/05 04:42:04;;;;;;;18.15;10.60;;;;;;;9.06;85.75;101458.28;5048556;28;20037;-77
2023/12/05 04:44:30;;;;;;;20.20;12.30;;;;;;;9.07;85.84;101470.78;5051218;28;20033;-78
2023/12/05 04:46:57;;;;;;;21.92;11.60;;;;;;;9.10;85.67;101470.59;5051869;28;20608;-78
2023/12/05 04:49:23;;;;;;;25.23;16.15;;;;;;;9.11;85.86;101458.91;5051940;28;20036;-77
2023/12/05 04:51:48;;;;;;;15.93;11.77;;;;;;;9.15;86.00;101469.34;5051246;28;20025;-78
2023/12/05 04:54:14;;;;;;;23.05;12.48;;;;;;;9.18;85.83;101465.59;5051892;28;20036;-76
2023/12/05 04:56:39;;;;;;;21.40;11.98;;;;;;;9.12;85.82;101450.72;5051508;28;20587;-76
2023/12/05 04:59:05;;;;;;;21.77;12.68;;;;;;;9.22;85.47;101464.44;5051407;28;20507;-75
2023/12/05 05:01:31;;;;;;;23.02;11.65;;;;;;;9.25;85.61;101461.56;5051961;28;20036;-76
2023/12/05 05:03:57;;;;;;;21.88;13.45;;;;;;;9.24;85.65;101468.75;5051940;28;20029;-77
2023/12/05 05:06:22;;;;;;;22.88;10.35;;;;;;;9.07;84.99;101460.03;5051994;28;20108;-77
2023/12/05 05:08:47;;;;;;;11.48;7.43;;;;;;;9.17;84.15;101475.44;5052195;28;20096;-76
2023/12/05 05:11:13;;;;;;;11.05;8.45;;;;;;;9.04;82.01;101476.31;5051349;28;20413;-77
2023/12/05 05:13:38;;;;;;;17.17;8.73;;;;;;;8.98;81.33;101477.56;5051844;28;20029;-76
2023/12/05 05:16:06;;;;;;;15.82;8.65;;;;;;;8.97;80.52;101486.56;5055113;28;20017;-75
2023/12/05 05:18:32;;;;;;;12.02;8.15;;;;;;;8.81;80.42;101479.56;5054297;28;20447;-76
2023/12/05 05:20:57;;;;;;;15.35;7.72;;;;;;;8.80;80.80;101472.47;5051690;28;20094;-78
2023/12/05 05:23:23;;;;;;;18.83;7.75;;;;;;;8.80;80.80;101475.13;5051874;28;20029;-77
2023/12/05 05:25:48;;;;;;;14.27;7.55;;;;;;;8.64;80.25;101446.56;5050796;28;20111;-76
2023/12/05 05:28:14;;;;;;;16.58;8.88;;;;;;;8.69;80.77;101447.13;5051143;28;20548;-77
2023/12/05 05:30:39;;;;;;;11.65;7.20;;;;;;;8.80;80.07;101461.72;5057466;28;20079;-77
2023/12/05 05:33:05;;;;;;;9.75;6.80;;;;;;;8.82;80.15;101465.16;5055930;28;20523;-78
2023/12/05 05:35:30;;;;;;;12.10;7.35;;;;;;;8.77;80.48;101464.59;5056445;28;20035;-77
2023/12/05 05:37:56;;;;;;;12.20;8.15;;;;;;;8.85;80.00;101460.47;5063249;28;20021;-78
2023/12/05 05:40:21;;;;;;;17.75;7.45;;;;;;;8.79;80.06;101455.50;5064881;28;20025;-76
2023/12/05 05:42:47;;;;;;;13.32;7.55;;;;;;;8.86;79.93;101456.84;5068029;28;20025;-76
2023/12/05 05:45:12;;;;;;;14.98;7.50;;;;;;;8.90;79.98;101446.81;5067620;28;20048;-79
2023/12/05 05:47:38;;;;;;;14.20;9.43;;;;;;;9.02;80.78;101462.97;5063811;28;20413;-76
2023/12/05 05:50:05;;;;;;;14.63;7.63;;;;;;;9.04;80.55;101455.72;5052387;28;20021;-74
2023/12/05 05:52:30;;;;;;;15.60;7.10;;;;;;;9.03;80.56;101463.84;5064707;28;20811;-77
2023/12/05 05:54:56;;;;;;;15.73;7.82;;;;;;;9.00;79.37;101450.63;5050339;28;20094;-74
2023/12/05 05:57:21;;;;;;;17.25;6.75;;;;;;;8.91;78.68;101437.78;5067777;28;20110;-75
2023/12/05 05:59:47;;;;;;;14.25;7.38;;;;;;;8.92;77.96;101452.94;5068476;28;20193;-76
2023/12/05 06:02:14;;;;;;;12.40;6.63;;;;;;;8.86;77.90;101453.31;5067982;28;20368;-73
2023/12/05 06:04:40;;;;;;;13.52;6.55;;;;;;;8.90;78.65;101457.53;5066888;28;20486;-75
2023/12/05 06:07:06;;;;;;;10.63;6.78;;;;;;;8.92;78.19;101460.97;5068174;28;20036;-75
2023/12/05 06:09:32;;;;;;;18.70;7.65;;;;;;;8.77;78.39;101441.31;5068821;28;20033;-76
2023/12/05 06:11:58;;;;;;;23.63;7.75;;;;;;;8.91;77.96;101459.25;5067347;28;20481;-76
2023/12/05 06:14:23;;;;;;;25.02;7.57;;;;;;;8.75;77.74;101444.09;5066966;28;20032;-74
2023/12/05 06:16:48;;;;;;;16.67;7.90;;;;;;;8.75;78.21;101454.81;5067078;28;20048;-75
2023/12/05 06:19:14;;;;;;;12.27;8.18;;;;;;;8.72;78.39;101448.75;5067024;28;20510;-76
2023/12/05 06:21:40;;;;;;;11.88;6.63;;;;;;;8.64;77.06;101453.75;5067007;28;20036;-75
2023/12/05 06:24:05;;;;;;;8.57;6.65;;;;;;;8.68;77.71;101448.09;5067126;28;20037;-75
2023/12/05 06:26:31;;;;;;;8.40;5.75;;;;;;;8.65;78.04;101456.31;5066997;28;20116;-74
2023/12/05 06:28:56;;;;;;;11.80;6.35;;;;;;;8.62;78.95;101436.91;5030482;28;20067;-74
2023/12/05 06:31:22;;;;;;;12.82;6.28;;;;;;;8.67;78.62;101442.84;5048025;28;20021;-75
2023/12/05 06:33:48;;;;;;;14.88;6.88;;;;;;;8.74;78.82;101458.44;5049724;28;20106;-75
2023/12/05 06:36:16;;;;;;;10.35;6.25;;;;;;;8.71;77.92;101439.84;5049298;28;20485;-77
2023/12/05 06:38:42;;;;;;;10.63;6.38;;;;;;;8.72;76.71;101443.41;5048452;28;20069;-76
2023/12/05 06:41:07;;;;;;;11.88;6.05;;;;;;;8.70;76.82;101442.66;5049622;28;20076;-76
2023/12/05 06:43:33;;;;;;;10.48;5.72;;;;;;;8.77;76.45;101452.88;5048321;28;20485;-77
2023/12/05 06:45:59;;;;;;;8.23;6.35;;;;;;;8.80;76.54;101449.19;5049541;28;20073;-77
2023/12/05 06:48:24;;;;;;;14.15;6.53;;;;;;;8.79;75.44;101446.59;5049604;28;20026;-77
2023/12/05 06:50:50;;;;;;;13.90;6.78;;;;;;;8.79;76.13;101452.81;5048883;28;20025;-78
2023/12/05 06:53:15;;;;;;;10.95;6.50;;;;;;;8.72;76.49;101417.47;5049316;28;20025;-78
2023/12/05 06:55:42;;;;;;;12.05;6.63;;;;;;;8.85;76.07;101438.16;5049342;28;20033;-78
2023/12/05 06:58:07;;;;;;;12.40;6.68;;;;;;;8.66;76.15;101420.50;5050473;28;20625;-78
2023/12/05 07:00:34;;;;;;;23.65;6.88;;;;;;;8.82;75.78;101430.31;5050623;28;20063;-78
2023/12/05 07:02:59;;;;;;;8.13;6.03;;;;;;;8.82;75.46;101433.84;5063977;28;20721;-79
2023/12/05 07:05:25;;;;;;;7.90;4.97;;;;;;;8.75;75.73;101444.09;5049351;28;20032;-78
2023/12/05 07:07:50;;;;;;;12.65;6.90;;;;;;;8.81;75.78;101439.31;5049600;28;20036;-76
2023/12/05 07:10:16;;;;;;;13.90;7.82;;;;;;;8.72;75.67;101412.09;5048926;28;20087;-77
2023/12/05 07:12:41;;;;;;;14.30;7.40;;;;;;;8.95;75.62;101440.19;5049000;28;20028;-79
2023/12/05 07:15:10;;;;;;;8.98;6.05;;;;;;;8.81;75.77;101407.97;5048758;28;20170;-77
2023/12/05 07:17:37;;;;;;;12.00;6.97;;;;;;;8.98;75.14;101431.09;5049111;28;20047;-79
2023/12/05 07:20:03;;;;;;;13.68;6.88;;;;;;;8.74;75.24;101388.72;5049037;28;20115;-77
2023/12/05 07:22:28;;;;;;;13.43;6.32;;;;;;;9.03;74.76;101432.53;5048917;28;20094;-78
2023/12/05 07:24:53;;;;;;;21.20;7.28;;;;;;;9.05;74.34;101425.22;5048379;28;20052;-78
2023/12/05 07:27:19;;;;;;;14.68;7.40;;;;;;;9.06;74.16;101426.97;5049108;28;20108;-77
2023/12/05 07:29:44;;;;;;;12.38;6.32;;;;;;;9.06;74.26;101424.28;5048715;28;20029;-79
2023/12/05 07:32:11;;;;;;;11.88;6.18;;;;;;;8.88;74.55;101374.47;5048479;28;20574;-78
2023/12/05 07:34:36;;;;;;;9.55;5.78;;;;;;;9.06;73.88;101405.50;5048979;28;20033;-79
2023/12/05 07:37:03;;;;;;;9.55;5.78;;;;;;;9.17;73.42;101423.63;5049011;28;20487;-78
2023/12/05 07:39:28;;;;;;;10.88;6.97;;;;;;;9.24;72.85;101419.56;5063330;28;20044;-79
2023/12/05 07:41:54;;;;;;;10.80;6.93;;;;;;;9.18;72.71;101415.47;5048932;28;20028;-78
2023/12/05 07:44:20;;;;;;;17.17;6.75;;;;;;;9.27;72.68;101414.00;5048599;28;20721;-78
2023/12/05 07:46:45;;;;;;;11.88;6.65;;;;;;;9.23;73.43;101412.50;5048783;28;20036;-77
2023/12/05 07:49:11;;;;;;;12.38;6.97;;;;;;;9.25;74.04;101415.94;5054768;28;20112;-77
2023/12/05 07:51:37;;;;;;;13.80;7.38;;;;;;;9.14;73.71;101394.28;5051182;28;20037;-77
2023/12/05 07:54:05;;;;;;;11.57;7.05;;;;;;;9.18;74.09;101398.50;5048276;28;20033;-80
2023/12/05 07:56:30;;;;;;;20.17;6.80;;;;;;;9.26;74.51;101412.31;5048101;28;20017;-79
2023/12/05 07:58:56;;;;;;;20.40;6.53;;;;;;;9.29;74.27;101412.94;5048386;28;20027;-77
2023/12/05 08:01:21;;;;;;;8.35;6.22;;;;;;;9.31;74.42;101410.19;5046899;28;20064;-80
2023/12/05 08:03:47;;;;;;;15.20;7.15;;;;;;;9.29;73.86;101406.75;5048017;28;20382;-78
2023/12/05 08:06:13;;;;;;;13.65;8.07;;;;;;;9.29;73.51;101402.22;5028982;28;20037;-78
2023/12/05 08:08:39;;;;;;;11.02;6.82;;;;;;;9.29;73.86;101396.84;5048238;28;20032;-78
2023/12/05 08:11:05;;;;;;;11.40;6.38;;;;;;;9.32;74.26;101398.50;5046569;28;20025;-77
2023/12/05 08:13:31;;;;;;;20.77;7.35;;;;;;;9.32;73.82;101400.31;5047993;28;20535;-78
2023/12/05 08:15:57;;;;;;;20.45;6.80;;;;;;;9.17;73.91;101375.31;5048081;28;20025;-77
2023/12/05 08:18:23;;;;;;;13.95;7.38;;;;;;;9.19;74.39;101381.44;5048054;28;20506;-78
2023/12/05 08:20:49;;;;;;;16.55;7.28;;;;;;;9.35;74.84;101392.94;5047696;28;20052;-78
2023/12/05 08:23:14;;;;;;;16.15;6.85;;;;;;;9.41;74.18;101389.84;5047997;28;20412;-77
2023/12/05 08:25:40;;;;;;;10.10;6.75;;;;;;;9.50;73.11;101400.00;5047891;28;20057;-78
2023/12/05 08:28:06;;;;;;;18.83;6.72;;;;;;;9.58;72.97;101381.56;5047950;28;20036;-77
2023/12/05 08:30:31;;;;;;;16.60;6.68;;;;;;;9.60;73.09;101390.34;5047740;28;20032;-77
2023/12/05 08:32:57;;;;;;;10.13;6.43;;;;;;;9.63;72.53;101390.16;5048632;28;20516;-78
2023/12/05 08:35:23;;;;;;;16.17;8.13;;;;;;;9.65;72.64;101385.56;5048174;28;20044;-77
2023/12/05 08:37:49;;;;;;;21.55;8.07;;;;;;;9.70;72.34;101391.50;5047975;28;20021;-76
2023/12/05 08:40:15;;;;;;;18.23;8.05;;;;;;;9.65;71.80;101361.41;5054245;28;20032;-75
2023/12/05 08:42:42;;;;;;;19.70;7.15;;;;;;;9.78;71.51;101377.56;5052414;28;20029;-77
2023/12/05 08:45:11;;;;;;;13.00;7.13;;;;;;;9.76;70.76;101366.91;5047546;28;20035;-78
2023/12/05 08:47:40;;;;;;;11.50;6.53;;;;;;;9.82;70.92;101369.19;5047635;28;20037;-78
2023/12/05 08:50:07;;;;;;;20.75;7.32;;;;;;;9.84;70.35;101372.66;5047428;28;20039;-78
2023/12/05 08:52:34;;;;;;;14.35;7.25;;;;;;;9.74;69.91;101360.78;5047524;28;20029;-79
2023/12/05 08:55:00;;;;;;;13.35;6.38;;;;;;;9.89;70.06;101374.16;5047581;28;20033;-78
2023/12/05 08:57:26;;;;;;;12.02;7.28;;;;;;;9.82;69.73;101358.44;5047240;28;20037;-78
2023/12/05 08:59:53;;;;;;;15.25;5.85;;;;;;;9.80;70.03;101351.47;5047623;28;20036;-77
2023/12/05 09:02:21;;;;;;;15.43;7.35;;;;;;;9.74;70.71;101338.44;5047605;28;20109;-78
2023/12/05 09:04:47;;;;;;;18.00;6.90;;;;;;;9.92;70.63;101344.41;5047225;28;20029;-78
2023/12/05 09:07:12;;;;;;;19.88;7.20;;;;;;;9.79;71.42;101337.16;5047335;28;20424;-77
2023/12/05 09:09:41;;;;;;;17.33;7.22;;;;;;;9.70;72.29;101326.16;5047232;28;20413;-78
2023/12/05 09:12:07;;;;;;;13.90;7.38;;;;;;;9.49;71.90;101282.81;5047640;28;20021;-77
2023/12/05 09:14:34;;;;;;;14.95;6.82;;;;;;;9.70;72.25;101320.78;5048927;28;20492;-77
2023/12/05 09:17:01;;;;;;;16.73;6.93;;;;;;;9.80;72.42;101322.78;5051296;28;20033;-78
2023/12/05 09:19:26;;;;;;;18.95;8.20;;;;;;;9.76;72.67;101315.88;5051178;28;20083;-77
2023/12/05 09:21:52;;;;;;;17.20;6.78;;;;;;;9.84;72.64;101321.63;5051505;28;20021;-78
2023/12/05 09:24:18;;;;;;;18.17;7.47;;;;;;;9.82;72.77;101309.22;5052185;28;20064;-77
2023/12/05 09:26:46;;;;;;;25.70;8.05;;;;;;;9.90;72.81;101312.28;5051316;28;20021;-79
2023/12/05 09:29:12;;;;;;;27.08;7.55;;;;;;;9.68;73.02;101272.56;5051462;28;20040;-77
2023/12/05 09:31:38;;;;;;;21.88;8.05;;;;;;;9.66;72.97;101270.94;5055844;28;20087;-78
2023/12/05 09:34:04;;;;;;;16.67;7.68;;;;;;;9.85;73.18;101293.75;5056130;28;20025;-78
2023/12/05 09:36:30;;;;;;;17.75;7.05;;;;;;;9.93;73.28;101295.06;5050339;28;20610;-78
2023/12/05 09:38:56;;;;;;;19.00;6.22;;;;;;;10.00;73.15;101297.22;5050706;28;20405;-78
2023/12/05 09:41:23;;;;;;;14.77;6.90;;;;;;;10.04;72.97;101292.50;5050720;28;20047;-78
2023/12/05 09:43:51;;;;;;;18.48;7.40;;;;;;;9.86;73.16;101267.75;5050736;28;20029;-78
2023/12/05 09:46:20;;;;;;;12.90;5.97;;;;;;;9.91;73.13;101281.72;5050824;28;20040;-78
2023/12/05 09:48:47;;;;;;;16.98;7.18;;;;;;;9.95;73.41;101282.38;5050371;28;20033;-78
2023/12/05 09:51:16;;;;;;;13.02;6.65;;;;;;;9.89;74.62;101278.28;5050289;28;20143;-79
2023/12/05 09:53:43;;;;;;;13.75;6.55;;;;;;;9.83;74.71;101268.84;5050128;28;20174;-78
2023/12/05 09:56:13;;;;;;;11.23;6.68;;;;;;;9.76;74.70;101267.53;5050310;28;20071;-78
2023/12/05 09:58:45;;;;;;;19.40;7.97;;;;;;;9.67;75.40;101262.78;5050441;28;20029;-78
2023/12/05 10:01:21;;;;;;;13.82;6.38;;;;;;;9.66;76.29;101254.84;5081500;28;20037;-78
2023/12/05 10:03:54;;;;;;;10.65;6.97;;;;;;;9.56;76.38;101233.09;5050056;28;20037;-77
2023/12/05 10:06:24;;;;;;;15.32;6.72;;;;;;;9.70;76.75;101254.50;5050334;28;20025;-77
2023/12/05 10:08:52;;;;;;;14.52;7.63;;;;;;;9.69;77.47;101250.09;5050125;28;20116;-78
2023/12/05 10:11:27;;;;;;;14.93;8.00;;;;;;;9.64;77.76;101246.88;5050225;28;20040;-78
2023/12/05 10:13:53;;;;;;;14.27;7.32;;;;;;;9.64;77.56;101246.88;5050692;28;20394;-78
2023/12/05 10:16:22;;;;;;;11.15;8.63;;;;;;;9.69;77.33;101243.88;5050230;28;20099;-78
2023/12/05 10:18:48;;;;;;;14.63;8.27;;;;;;;9.82;77.56;101245.59;5066773;28;20041;-78
2023/12/05 10:21:13;;;;;;;13.27;7.82;;;;;;;9.74;77.17;101223.78;5055347;28;20031;-78
2023/12/05 10:23:39;;;;;;;18.35;7.38;;;;;;;9.78;76.84;101217.22;5057911;28;20785;-78
2023/12/05 10:26:05;;;;;;;9.88;6.32;;;;;;;9.87;76.22;101231.00;5050413;28;20045;-78
2023/12/05 10:28:30;;;;;;;23.88;7.13;;;;;;;9.84;75.85;101222.22;5049549;28;20029;-77
2023/12/05 10:30:57;;;;;;;13.73;7.05;;;;;;;9.80;75.46;101199.19;5049616;28;20029;-77
2023/12/05 10:33:22;;;;;;;18.38;8.93;;;;;;;9.87;75.12;101212.19;5030522;28;20426;-78
2023/12/05 10:35:48;;;;;;;16.90;8.20;;;;;;;9.80;75.41;101192.97;5049460;28;20108;-77
2023/12/05 10:38:17;;;;;;;14.70;7.25;;;;;;;10.01;74.92;101204.91;5049753;28;20059;-78
2023/12/05 10:40:59;;;;;;;12.77;6.25;;;;;;;10.00;74.01;101205.84;5049309;28;20032;-77
2023/12/05 10:43:26;;;;;;;16.50;6.60;;;;;;;10.01;73.63;101190.59;5049512;28;20464;-78
2023/12/05 10:45:54;;;;;;;12.10;6.38;;;;;;;10.08;73.06;101199.97;5049439;28;20041;-76
2023/12/05 10:48:20;;;;;;;13.18;6.68;;;;;;;10.00;73.11;101200.47;5049426;28;20037;-78
2023/12/05 10:50:47;;;;;;;15.75;6.65;;;;;;;10.04;73.52;101196.63;5049347;28;20031;-77
2023/12/05 10:53:14;;;;;;;18.10;6.57;;;;;;;10.04;73.74;101185.88;5049274;28;20400;-78
2023/12/05 10:56:37;;;;;;;18.77;7.55;;;;;;;9.76;73.72;101132.34;5048945;28;20040;-80
2023/12/05 11:02:51;;;;;;;13.10;6.47;;;;;;;9.74;73.32;101127.09;4853945;29;20045;-78
2023/12/05 11:05:18;;;;;;;12.38;6.55;;;;;;;10.19;73.26;101194.72;4854763;29;20124;-77
2023/12/05 11:07:44;;;;;;;14.00;6.28;;;;;;;10.15;73.45;101188.69;4854609;29;20427;-78
2023/12/05 11:10:11;;;;;;;14.05;6.07;;;;;;;10.05;73.58;101151.78;4854758;29;20043;-78
2023/12/05 11:12:38;;;;;;;17.80;7.22;;;;;;;10.27;73.35;101186.97;4862830;29;20038;-78
2023/12/05 11:15:06;;;;;;;10.15;6.40;;;;;;;10.24;73.93;101181.81;4846793;29;20569;-78
2023/12/05 11:17:37;;;;;;;18.02;8.18;;;;;;;10.17;73.64;101164.41;4824043;29;20141;-78
2023/12/05 11:20:20;;;;;;;12.82;7.68;;;;;;;10.27;73.61;101181.59;4853932;29;20534;-77
2023/12/05 11:22:48;;;;;;;;;;;;;;;10.25;73.47;101195.13;4854466;29;20502;-78